sensor_id;sensor_type;location;lat;lon;timestamp;P1;durP1;ratioP1;P2;durP2;ratioP2
75914;SDS011;64593;51.050;13.780;2022-11-03T07:03:56;19.10;;;5.57;;
75914;SDS011;64593;51.050;13.780;2022-11-03T07:09:04;10.85;;;6.07;;
75914;SDS011;64593;51.050;13.780;2022-11-03T07:19:18;11.65;;;5.40;;
75914;SDS011;64593;51.050;13.780;2022-11-03T07:34:46;8.13;;;2.55;;
75914;SDS011;64593;51.050;13.780;2022-11-03T07:39:48;6.70;;;2.65;;
75914;SDS011;64593;51.050;13.780;2022-11-03T07:44:51;7.60;;;2.75;;
75914;SDS011;64593;51.050;13.780;2022-11-03T07:49:53;5.03;;;1.77;;
75914;SDS011;64593;51.050;13.780;2022-11-03T07:54:55;4.97;;;2.25;;
75914;SDS011;64593;51.050;13.780;2022-11-03T08:00:00;5.78;;;2.10;;
75914;SDS011;64593;51.050;13.780;2022-11-03T08:05:12;8.27;;;2.50;;
75914;SDS011;64593;51.050;13.780;2022-11-03T08:10:13;2.72;;;1.65;;
75914;SDS011;64593;51.050;13.780;2022-11-03T08:15:15;3.45;;;1.63;;
75914;SDS011;64593;51.050;13.780;2022-11-03T08:20:35;9.85;;;2.75;;
75914;SDS011;64593;51.050;13.780;2022-11-03T08:25:37;3.35;;;1.95;;
75914;SDS011;64593;51.050;13.780;2022-11-03T08:30:38;4.40;;;2.40;;
75914;SDS011;64593;51.050;13.780;2022-11-03T08:35:40;11.30;;;2.42;;
75914;SDS011;64593;51.050;13.780;2022-11-03T08:40:43;8.20;;;2.67;;
75914;SDS011;64593;51.050;13.780;2022-11-03T08:45:47;5.80;;;2.50;;
75914;SDS011;64593;51.050;13.780;2022-11-03T08:50:54;6.82;;;2.80;;
75914;SDS011;64593;51.050;13.780;2022-11-03T08:55:56;7.78;;;2.05;;
75914;SDS011;64593;51.050;13.780;2022-11-03T09:00:58;7.75;;;2.70;;
75914;SDS011;64593;51.050;13.780;2022-11-03T09:05:59;6.70;;;1.80;;
75914;SDS011;64593;51.050;13.780;2022-11-03T09:11:01;3.50;;;1.48;;
75914;SDS011;64593;51.050;13.780;2022-11-03T09:16:02;9.88;;;2.75;;
75914;SDS011;64593;51.050;13.780;2022-11-03T09:21:04;1.20;;;0.88;;
75914;SDS011;64593;51.050;13.780;2022-11-03T09:26:06;9.93;;;1.88;;
75914;SDS011;64593;51.050;13.780;2022-11-03T09:31:08;4.50;;;1.73;;
75914;SDS011;64593;51.050;13.780;2022-11-03T09:36:09;7.15;;;1.67;;
75914;SDS011;64593;51.050;13.780;2022-11-03T09:41:11;9.15;;;2.10;;
75914;SDS011;64593;51.050;13.780;2022-11-03T09:46:25;7.13;;;1.98;;
75914;SDS011;64593;51.050;13.780;2022-11-03T09:51:28;7.88;;;1.90;;
75914;SDS011;64593;51.050;13.780;2022-11-03T09:56:30;6.95;;;1.92;;
75914;SDS011;64593;51.050;13.780;2022-11-03T10:01:36;8.48;;;2.15;;
75914;SDS011;64593;51.050;13.780;2022-11-03T10:06:38;5.10;;;1.52;;
75914;SDS011;64593;51.050;13.780;2022-11-03T10:11:42;5.47;;;2.25;;
75914;SDS011;64593;51.050;13.780;2022-11-03T10:16:51;5.22;;;1.48;;
75914;SDS011;64593;51.050;13.780;2022-11-03T10:21:55;8.13;;;2.15;;
75914;SDS011;64593;51.050;13.780;2022-11-03T10:26:57;7.45;;;2.47;;
75914;SDS011;64593;51.050;13.780;2022-11-03T10:31:59;4.35;;;1.23;;
75914;SDS011;64593;51.050;13.780;2022-11-03T10:47:23;5.75;;;1.48;;
75914;SDS011;64593;51.050;13.780;2022-11-03T10:52:34;5.32;;;1.80;;
75914;SDS011;64593;51.050;13.780;2022-11-03T10:57:36;5.82;;;1.60;;
75914;SDS011;64593;51.050;13.780;2022-11-03T11:02:39;6.35;;;1.65;;
75914;SDS011;64593;51.050;13.780;2022-11-03T11:07:43;3.53;;;1.33;;
75914;SDS011;64593;51.050;13.780;2022-11-03T11:33:36;3.20;;;1.42;;
75914;SDS011;64593;51.050;13.780;2022-11-03T11:43:45;6.20;;;1.63;;
75914;SDS011;64593;51.050;13.780;2022-11-03T11:53:57;6.07;;;1.55;;
75914;SDS011;64593;51.050;13.780;2022-11-03T11:59:18;3.45;;;1.13;;
75914;SDS011;64593;51.050;13.780;2022-11-03T12:04:26;6.55;;;1.65;;
75914;SDS011;64593;51.050;13.780;2022-11-03T12:09:33;4.28;;;1.33;;
75914;SDS011;64593;51.050;13.780;2022-11-03T12:26:46;8.50;;;2.53;;
75914;SDS011;64593;51.050;13.780;2022-11-03T12:31:48;4.32;;;1.20;;
75914;SDS011;64593;51.050;13.780;2022-11-03T12:36:56;2.35;;;1.13;;
75914;SDS011;64593;51.050;13.780;2022-11-03T12:41:58;7.68;;;1.85;;
75914;SDS011;64593;51.050;13.780;2022-11-03T12:52:03;7.20;;;2.47;;
75914;SDS011;64593;51.050;13.780;2022-11-03T12:57:26;5.43;;;1.95;;
75914;SDS011;64593;51.050;13.780;2022-11-03T13:02:28;13.57;;;3.72;;
75914;SDS011;64593;51.050;13.780;2022-11-03T13:07:30;6.00;;;2.42;;
75914;SDS011;64593;51.050;13.780;2022-11-03T13:12:38;10.80;;;4.18;;
75914;SDS011;64593;51.050;13.780;2022-11-03T13:17:41;8.85;;;2.95;;
75914;SDS011;64593;51.050;13.780;2022-11-03T13:23:03;5.32;;;2.78;;
75914;SDS011;64593;51.050;13.780;2022-11-03T13:28:06;7.88;;;2.65;;
75914;SDS011;64593;51.050;13.780;2022-11-03T13:33:07;10.00;;;3.03;;
75914;SDS011;64593;51.050;13.780;2022-11-03T13:38:09;4.78;;;2.00;;
75914;SDS011;64593;51.050;13.780;2022-11-03T13:43:11;8.20;;;2.95;;
75914;SDS011;64593;51.050;13.780;2022-11-03T13:48:15;6.72;;;3.08;;
75914;SDS011;64593;51.050;13.780;2022-11-03T13:53:58;10.15;;;2.75;;
75914;SDS011;64593;51.050;13.780;2022-11-03T13:59:20;7.13;;;2.55;;
75914;SDS011;64593;51.050;13.780;2022-11-03T14:04:29;11.75;;;2.75;;
75914;SDS011;64593;51.050;13.780;2022-11-03T14:09:38;10.63;;;3.88;;
75914;SDS011;64593;51.050;13.780;2022-11-03T14:14:39;7.50;;;2.28;;
75914;SDS011;64593;51.050;13.780;2022-11-03T14:19:41;4.53;;;2.03;;
75914;SDS011;64593;51.050;13.780;2022-11-03T14:24:47;5.82;;;3.20;;
75914;SDS011;64593;51.050;13.780;2022-11-03T14:29:49;12.65;;;3.97;;
75914;SDS011;64593;51.050;13.780;2022-11-03T14:34:51;11.02;;;3.30;;
75914;SDS011;64593;51.050;13.780;2022-11-03T14:39:53;6.90;;;3.47;;
75914;SDS011;64593;51.050;13.780;2022-11-03T14:44:55;10.38;;;3.25;;
75914;SDS011;64593;51.050;13.780;2022-11-03T14:49:56;14.60;;;3.90;;
75914;SDS011;64593;51.050;13.780;2022-11-03T14:55:00;7.88;;;3.25;;
75914;SDS011;64593;51.050;13.780;2022-11-03T15:00:02;11.07;;;4.43;;
75914;SDS011;64593;51.050;13.780;2022-11-03T15:05:04;8.15;;;3.10;;
75914;SDS011;64593;51.050;13.780;2022-11-03T15:10:06;10.02;;;4.05;;
75914;SDS011;64593;51.050;13.780;2022-11-03T15:15:07;6.35;;;4.05;;
75914;SDS011;64593;51.050;13.780;2022-11-03T15:20:09;8.32;;;3.67;;
75914;SDS011;64593;51.050;13.780;2022-11-03T15:25:11;9.95;;;4.53;;
75914;SDS011;64593;51.050;13.780;2022-11-03T15:30:13;9.35;;;3.88;;
75914;SDS011;64593;51.050;13.780;2022-11-03T15:35:15;6.90;;;3.65;;
75914;SDS011;64593;51.050;13.780;2022-11-03T15:40:17;6.45;;;4.13;;
75914;SDS011;64593;51.050;13.780;2022-11-03T15:45:18;8.60;;;3.53;;
75914;SDS011;64593;51.050;13.780;2022-11-03T15:50:20;4.38;;;2.35;;
75914;SDS011;64593;51.050;13.780;2022-11-03T15:55:22;7.95;;;2.83;;
75914;SDS011;64593;51.050;13.780;2022-11-03T16:00:42;6.40;;;3.33;;
75914;SDS011;64593;51.050;13.780;2022-11-03T16:05:43;9.30;;;3.00;;
75914;SDS011;64593;51.050;13.780;2022-11-03T16:10:45;7.93;;;3.70;;
75914;SDS011;64593;51.050;13.780;2022-11-03T16:15:53;5.05;;;2.60;;
75914;SDS011;64593;51.050;13.780;2022-11-03T16:20:55;10.40;;;4.90;;
75914;SDS011;64593;51.050;13.780;2022-11-03T16:25:56;9.43;;;4.47;;
75914;SDS011;64593;51.050;13.780;2022-11-03T16:30:58;13.80;;;4.32;;
75914;SDS011;64593;51.050;13.780;2022-11-03T16:35:59;7.00;;;3.30;;
75914;SDS011;64593;51.050;13.780;2022-11-03T16:41:01;6.68;;;2.92;;
75914;SDS011;64593;51.050;13.780;2022-11-03T16:46:03;9.30;;;3.05;;
75914;SDS011;64593;51.050;13.780;2022-11-03T16:51:07;10.82;;;4.22;;
75914;SDS011;64593;51.050;13.780;2022-11-03T16:56:08;12.98;;;3.92;;
75914;SDS011;64593;51.050;13.780;2022-11-03T17:01:10;11.25;;;5.50;;
75914;SDS011;64593;51.050;13.780;2022-11-03T17:06:12;11.07;;;4.00;;
75914;SDS011;64593;51.050;13.780;2022-11-03T17:11:13;8.90;;;3.97;;
75914;SDS011;64593;51.050;13.780;2022-11-03T17:16:15;5.53;;;3.25;;
75914;SDS011;64593;51.050;13.780;2022-11-03T17:21:16;16.58;;;3.40;;
75914;SDS011;64593;51.050;13.780;2022-11-03T17:26:19;7.15;;;3.83;;
75914;SDS011;64593;51.050;13.780;2022-11-03T17:31:25;5.70;;;2.80;;
75914;SDS011;64593;51.050;13.780;2022-11-03T17:36:46;13.88;;;4.35;;
75914;SDS011;64593;51.050;13.780;2022-11-03T17:41:47;14.63;;;5.53;;
75914;SDS011;64593;51.050;13.780;2022-11-03T17:46:51;25.10;;;9.23;;
75914;SDS011;64593;51.050;13.780;2022-11-03T17:57:25;11.98;;;5.07;;
75914;SDS011;64593;51.050;13.780;2022-11-03T18:02:27;12.50;;;4.93;;
75914;SDS011;64593;51.050;13.780;2022-11-03T18:07:50;13.68;;;4.93;;
75914;SDS011;64593;51.050;13.780;2022-11-03T18:12:53;9.77;;;5.43;;
75914;SDS011;64593;51.050;13.780;2022-11-03T18:23:36;11.65;;;4.35;;
75914;SDS011;64593;51.050;13.780;2022-11-03T18:28:40;11.07;;;5.63;;
75914;SDS011;64593;51.050;13.780;2022-11-03T18:33:45;11.32;;;5.78;;
75914;SDS011;64593;51.050;13.780;2022-11-03T18:38:48;10.80;;;4.30;;
75914;SDS011;64593;51.050;13.780;2022-11-03T18:48:53;7.82;;;4.47;;
75914;SDS011;64593;51.050;13.780;2022-11-03T18:53:57;18.27;;;4.25;;
75914;SDS011;64593;51.050;13.780;2022-11-03T18:58:59;13.20;;;6.47;;
75914;SDS011;64593;51.050;13.780;2022-11-03T19:04:01;15.38;;;4.38;;
75914;SDS011;64593;51.050;13.780;2022-11-03T19:09:02;15.88;;;8.10;;
75914;SDS011;64593;51.050;13.780;2022-11-03T19:14:04;11.32;;;6.10;;
75914;SDS011;64593;51.050;13.780;2022-11-03T19:19:10;12.55;;;6.68;;
75914;SDS011;64593;51.050;13.780;2022-11-03T19:24:11;10.20;;;6.25;;
75914;SDS011;64593;51.050;13.780;2022-11-03T19:29:15;12.57;;;6.78;;
75914;SDS011;64593;51.050;13.780;2022-11-03T19:34:24;11.23;;;6.18;;
75914;SDS011;64593;51.050;13.780;2022-11-03T19:44:56;15.95;;;6.93;;
75914;SDS011;64593;51.050;13.780;2022-11-03T19:50:00;10.35;;;5.93;;
75914;SDS011;64593;51.050;13.780;2022-11-03T19:55:03;13.07;;;6.78;;
75914;SDS011;64593;51.050;13.780;2022-11-03T20:00:09;15.32;;;6.18;;
75914;SDS011;64593;51.050;13.780;2022-11-03T20:05:16;11.63;;;5.32;;
75914;SDS011;64593;51.050;13.780;2022-11-03T20:10:18;12.38;;;5.00;;
75914;SDS011;64593;51.050;13.780;2022-11-03T20:15:39;11.27;;;6.28;;
75914;SDS011;64593;51.050;13.780;2022-11-03T20:20:41;14.35;;;6.65;;
75914;SDS011;64593;51.050;13.780;2022-11-03T20:25:43;11.50;;;6.22;;
75914;SDS011;64593;51.050;13.780;2022-11-03T20:30:46;11.65;;;5.55;;
75914;SDS011;64593;51.050;13.780;2022-11-03T20:35:52;16.13;;;6.32;;
75914;SDS011;64593;51.050;13.780;2022-11-03T20:40:54;7.38;;;5.18;;
75914;SDS011;64593;51.050;13.780;2022-11-03T20:46:00;14.85;;;5.35;;
75914;SDS011;64593;51.050;13.780;2022-11-03T20:51:01;11.25;;;6.28;;
75914;SDS011;64593;51.050;13.780;2022-11-03T20:56:03;15.23;;;6.80;;
75914;SDS011;64593;51.050;13.780;2022-11-03T21:01:09;13.25;;;6.82;;
75914;SDS011;64593;51.050;13.780;2022-11-03T21:06:15;10.77;;;6.00;;
75914;SDS011;64593;51.050;13.780;2022-11-03T21:11:19;12.05;;;4.10;;
75914;SDS011;64593;51.050;13.780;2022-11-03T21:16:25;11.57;;;5.03;;
75914;SDS011;64593;51.050;13.780;2022-11-03T21:21:47;16.60;;;6.47;;
75914;SDS011;64593;51.050;13.780;2022-11-03T21:26:48;14.55;;;5.40;;
75914;SDS011;64593;51.050;13.780;2022-11-03T21:42:50;13.00;;;5.80;;
75914;SDS011;64593;51.050;13.780;2022-11-03T21:54:12;11.02;;;5.35;;
75914;SDS011;64593;51.050;13.780;2022-11-03T21:59:35;11.95;;;4.65;;
75914;SDS011;64593;51.050;13.780;2022-11-03T22:04:37;10.50;;;4.63;;
75914;SDS011;64593;51.050;13.780;2022-11-03T22:09:39;10.38;;;5.35;;
75914;SDS011;64593;51.050;13.780;2022-11-03T22:14:40;10.35;;;5.43;;
75914;SDS011;64593;51.050;13.780;2022-11-03T22:20:01;15.02;;;5.75;;
75914;SDS011;64593;51.050;13.780;2022-11-03T22:25:24;7.45;;;3.67;;
75914;SDS011;64593;51.050;13.780;2022-11-03T22:30:44;8.48;;;5.05;;
75914;SDS011;64593;51.050;13.780;2022-11-03T22:36:04;10.10;;;4.47;;
75914;SDS011;64593;51.050;13.780;2022-11-03T22:41:24;10.18;;;5.13;;
75914;SDS011;64593;51.050;13.780;2022-11-03T22:46:45;12.77;;;4.90;;
75914;SDS011;64593;51.050;13.780;2022-11-03T22:51:46;15.60;;;5.22;;
75914;SDS011;64593;51.050;13.780;2022-11-03T22:56:48;10.32;;;5.13;;
